Terminal Aerodrome Forecast
Issued by NWS Amarillo, TX

Home | Current Version | Previous Version | Text Only | Print | Product List | Glossary On
Versions: 1 2 3 4 5 6 7 8 9 10 11 12 13 14 15 16 17 18 19 20 21 22
894
FTUS44 KAMA 292340
TAFGUY
TAF
KGUY 292340Z 3000/3024 34012KT P6SM SCT009 BKN013 OVC025
     FM300300 33010KT P6SM OVC009
     FM300700 32010KT 5SM BR OVC007
     FM301500 34012KT P6SM SCT040 BKN250
     FM302000 34013KT P6SM BKN040=

USA.gov is the U.S. government's official web portal to all federal, state and local government web resources and services.